Terminal Aerodrome Forecast
Issued by NWS Green Bay, WI

Home | Current Version | Previous Version | Text Only | Print | Product List | Glossary Off
Versions: 1 2 3 4 5 6 7 8 9 10 11 12 13 14 15 16 17 18 19 20 21 22 23 24 25 26

000
FTUS43 KGRB 241131
TAFGRB
TAF
KGRB 241131Z 2412/2512 VRB03KT P6SM SCT100 SCT250
     FM241400 19007KT P6SM SCT050 BKN250
     FM241700 19010G16KT P6SM SCT060 BKN250
     FM250000 18009KT P6SM SCT100 BKN200
     FM250500 20006KT P6SM SCT100 BKN200 WS010/22030KT
     FM250900 20006KT P6SM SCT100 BKN200 WS010/24035KT=

USA.gov is the U.S. government's official web portal to all federal, state and local government web resources and services.